sensor_id;sensor_type;location;lat;lon;timestamp;pressure;altitude;pressure_sealevel;temperature;humidity
64292;BME280;50628;51.008;13.658;2023-02-17T00:00:28;100172.28;;;8.29;100.00
64292;BME280;50628;51.008;13.658;2023-02-17T00:05:30;100169.34;;;8.34;100.00
64292;BME280;50628;51.008;13.658;2023-02-17T00:10:33;100182.16;;;8.37;100.00
64292;BME280;50628;51.008;13.658;2023-02-17T00:15:37;100187.22;;;8.38;100.00
64292;BME280;50628;51.008;13.658;2023-02-17T00:20:38;100187.53;;;8.61;100.00
64292;BME280;50628;51.008;13.658;2023-02-17T00:25:42;100186.00;;;8.71;100.00
64292;BME280;50628;51.008;13.658;2023-02-17T00:30:44;100168.66;;;8.72;100.00
64292;BME280;50628;51.008;13.658;2023-02-17T00:35:45;100167.72;;;8.73;100.00
64292;BME280;50628;51.008;13.658;2023-02-17T00:40:49;100152.16;;;8.73;100.00
64292;BME280;50628;51.008;13.658;2023-02-17T00:45:51;100157.28;;;8.87;100.00
64292;BME280;50628;51.008;13.658;2023-02-17T00:50:54;100151.88;;;8.90;100.00
64292;BME280;50628;51.008;13.658;2023-02-17T00:55:58;100148.03;;;8.83;100.00
64292;BME280;50628;51.008;13.658;2023-02-17T01:01:00;100144.91;;;8.78;100.00
64292;BME280;50628;51.008;13.658;2023-02-17T01:06:05;100148.75;;;8.85;100.00
64292;BME280;50628;51.008;13.658;2023-02-17T01:11:15;100143.97;;;8.92;100.00
64292;BME280;50628;51.008;13.658;2023-02-17T01:16:20;100130.06;;;9.18;100.00
64292;BME280;50628;51.008;13.658;2023-02-17T01:21:25;100130.66;;;9.09;100.00
64292;BME280;50628;51.008;13.658;2023-02-17T01:26:31;100127.88;;;9.25;100.00
64292;BME280;50628;51.008;13.658;2023-02-17T01:31:35;100114.03;;;9.24;100.00
64292;BME280;50628;51.008;13.658;2023-02-17T01:36:37;100122.34;;;9.29;100.00
64292;BME280;50628;51.008;13.658;2023-02-17T01:41:41;100110.81;;;9.34;100.00
64292;BME280;50628;51.008;13.658;2023-02-17T01:46:45;100102.56;;;9.52;100.00
64292;BME280;50628;51.008;13.658;2023-02-17T01:51:51;100107.97;;;9.49;100.00
64292;BME280;50628;51.008;13.658;2023-02-17T01:56:58;100098.44;;;9.50;100.00
64292;BME280;50628;51.008;13.658;2023-02-17T02:02:04;100087.63;;;9.43;100.00
64292;BME280;50628;51.008;13.658;2023-02-17T02:07:12;100071.75;;;9.35;100.00
64292;BME280;50628;51.008;13.658;2023-02-17T02:12:19;100071.63;;;9.37;100.00
64292;BME280;50628;51.008;13.658;2023-02-17T02:17:29;100076.41;;;9.43;100.00
64292;BME280;50628;51.008;13.658;2023-02-17T02:28:20;100046.50;;;9.61;100.00
64292;BME280;50628;51.008;13.658;2023-02-17T02:33:33;100035.50;;;9.58;100.00
64292;BME280;50628;51.008;13.658;2023-02-17T02:38:41;100030.66;;;9.53;100.00
64292;BME280;50628;51.008;13.658;2023-02-17T02:43:43;100024.81;;;9.49;100.00
64292;BME280;50628;51.008;13.658;2023-02-17T02:48:47;100018.06;;;9.47;100.00
64292;BME280;50628;51.008;13.658;2023-02-17T02:54:18;100008.13;;;9.41;100.00
64292;BME280;50628;51.008;13.658;2023-02-17T02:59:32;100018.34;;;9.31;100.00
64292;BME280;50628;51.008;13.658;2023-02-17T03:04:41;100007.72;;;9.34;100.00
64292;BME280;50628;51.008;13.658;2023-02-17T03:09:48;99997.38;;;9.21;100.00
64292;BME280;50628;51.008;13.658;2023-02-17T03:14:53;100022.06;;;9.03;100.00
64292;BME280;50628;51.008;13.658;2023-02-17T03:19:58;100010.00;;;9.02;100.00
64292;BME280;50628;51.008;13.658;2023-02-17T03:25:02;99985.28;;;8.96;100.00
64292;BME280;50628;51.008;13.658;2023-02-17T03:30:05;99986.13;;;8.97;100.00
64292;BME280;50628;51.008;13.658;2023-02-17T03:35:08;99975.88;;;8.95;100.00
64292;BME280;50628;51.008;13.658;2023-02-17T03:40:10;99970.22;;;9.01;100.00
64292;BME280;50628;51.008;13.658;2023-02-17T03:45:12;99979.38;;;8.94;100.00
64292;BME280;50628;51.008;13.658;2023-02-17T03:50:16;99980.94;;;8.97;100.00
64292;BME280;50628;51.008;13.658;2023-02-17T03:55:18;99984.38;;;8.97;100.00
64292;BME280;50628;51.008;13.658;2023-02-17T04:00:20;99979.06;;;8.99;100.00
64292;BME280;50628;51.008;13.658;2023-02-17T04:05:26;99988.84;;;8.95;100.00
64292;BME280;50628;51.008;13.658;2023-02-17T04:10:27;99982.50;;;8.86;100.00
64292;BME280;50628;51.008;13.658;2023-02-17T04:15:29;99996.66;;;8.82;100.00
64292;BME280;50628;51.008;13.658;2023-02-17T04:20:33;99990.09;;;8.77;100.00
64292;BME280;50628;51.008;13.658;2023-02-17T04:25:35;99985.34;;;8.58;100.00
64292;BME280;50628;51.008;13.658;2023-02-17T04:30:37;99983.66;;;8.31;100.00
64292;BME280;50628;51.008;13.658;2023-02-17T04:35:41;99968.31;;;8.28;100.00
64292;BME280;50628;51.008;13.658;2023-02-17T04:40:43;99976.31;;;8.25;100.00
64292;BME280;50628;51.008;13.658;2023-02-17T04:45:44;99970.16;;;8.26;100.00
64292;BME280;50628;51.008;13.658;2023-02-17T04:50:48;99961.16;;;8.19;100.00
64292;BME280;50628;51.008;13.658;2023-02-17T04:55:51;99950.75;;;8.06;100.00
64292;BME280;50628;51.008;13.658;2023-02-17T05:00:57;99960.53;;;8.02;100.00
64292;BME280;50628;51.008;13.658;2023-02-17T05:06:01;99956.69;;;8.08;100.00
64292;BME280;50628;51.008;13.658;2023-02-17T05:11:03;99944.97;;;8.15;100.00
64292;BME280;50628;51.008;13.658;2023-02-17T05:16:05;99949.03;;;8.19;100.00
64292;BME280;50628;51.008;13.658;2023-02-17T05:21:08;99931.50;;;8.10;100.00
64292;BME280;50628;51.008;13.658;2023-02-17T05:26:10;99936.16;;;8.18;100.00
64292;BME280;50628;51.008;13.658;2023-02-17T05:31:12;99943.63;;;8.10;100.00
64292;BME280;50628;51.008;13.658;2023-02-17T05:36:15;99948.38;;;8.16;100.00
64292;BME280;50628;51.008;13.658;2023-02-17T05:41:18;99942.47;;;8.14;100.00
64292;BME280;50628;51.008;13.658;2023-02-17T05:46:20;99943.31;;;8.14;100.00
64292;BME280;50628;51.008;13.658;2023-02-17T05:51:24;99929.72;;;8.11;100.00
64292;BME280;50628;51.008;13.658;2023-02-17T05:56:26;99935.63;;;8.13;100.00
64292;BME280;50628;51.008;13.658;2023-02-17T06:01:27;99921.25;;;8.21;100.00
64292;BME280;50628;51.008;13.658;2023-02-17T06:06:31;99922.47;;;8.16;100.00
64292;BME280;50628;51.008;13.658;2023-02-17T06:11:32;99921.84;;;8.25;100.00
64292;BME280;50628;51.008;13.658;2023-02-17T06:16:34;99911.25;;;8.28;100.00
64292;BME280;50628;51.008;13.658;2023-02-17T06:21:38;99917.28;;;8.41;100.00
64292;BME280;50628;51.008;13.658;2023-02-17T06:26:40;99910.44;;;8.40;100.00
64292;BME280;50628;51.008;13.658;2023-02-17T06:31:41;99914.50;;;8.44;100.00
64292;BME280;50628;51.008;13.658;2023-02-17T06:36:45;99904.50;;;8.51;100.00
64292;BME280;50628;51.008;13.658;2023-02-17T06:41:47;99923.59;;;8.63;100.00
64292;BME280;50628;51.008;13.658;2023-02-17T06:46:48;99909.13;;;8.72;100.00
64292;BME280;50628;51.008;13.658;2023-02-17T06:51:52;99913.19;;;8.76;100.00
64292;BME280;50628;51.008;13.658;2023-02-17T06:56:54;99909.28;;;8.70;100.00
64292;BME280;50628;51.008;13.658;2023-02-17T07:01:55;99903.53;;;8.78;100.00
64292;BME280;50628;51.008;13.658;2023-02-17T07:06:59;99904.75;;;8.85;100.00
64292;BME280;50628;51.008;13.658;2023-02-17T07:12:01;99905.81;;;8.82;100.00
64292;BME280;50628;51.008;13.658;2023-02-17T07:17:03;99914.59;;;8.93;100.00
64292;BME280;50628;51.008;13.658;2023-02-17T07:22:06;99905.50;;;8.87;100.00
64292;BME280;50628;51.008;13.658;2023-02-17T07:27:08;99915.94;;;8.98;100.00
64292;BME280;50628;51.008;13.658;2023-02-17T07:32:10;99902.66;;;8.90;100.00
64292;BME280;50628;51.008;13.658;2023-02-17T07:37:13;99909.50;;;8.91;100.00
64292;BME280;50628;51.008;13.658;2023-02-17T07:42:15;99897.47;;;8.90;100.00
64292;BME280;50628;51.008;13.658;2023-02-17T07:47:20;99909.63;;;8.90;100.00
64292;BME280;50628;51.008;13.658;2023-02-17T07:52:23;99908.59;;;8.92;100.00
64292;BME280;50628;51.008;13.658;2023-02-17T07:57:26;99896.44;;;8.93;100.00
64292;BME280;50628;51.008;13.658;2023-02-17T08:02:28;99883.31;;;8.94;100.00
64292;BME280;50628;51.008;13.658;2023-02-17T08:07:31;99913.66;;;8.94;100.00
64292;BME280;50628;51.008;13.658;2023-02-17T08:12:33;99911.75;;;9.08;100.00
64292;BME280;50628;51.008;13.658;2023-02-17T08:18:04;99909.53;;;9.15;100.00
64292;BME280;50628;51.008;13.658;2023-02-17T08:23:07;99905.25;;;9.14;100.00
64292;BME280;50628;51.008;13.658;2023-02-17T08:28:10;99906.25;;;9.24;100.00
64292;BME280;50628;51.008;13.658;2023-02-17T08:33:12;99902.13;;;9.22;100.00
64292;BME280;50628;51.008;13.658;2023-02-17T08:38:18;99908.66;;;9.27;100.00
64292;BME280;50628;51.008;13.658;2023-02-17T08:43:20;99898.19;;;9.40;100.00
64292;BME280;50628;51.008;13.658;2023-02-17T08:48:22;99882.97;;;9.47;100.00
64292;BME280;50628;51.008;13.658;2023-02-17T08:53:25;99883.25;;;9.55;100.00
64292;BME280;50628;51.008;13.658;2023-02-17T08:58:27;99869.16;;;9.46;100.00
64292;BME280;50628;51.008;13.658;2023-02-17T09:03:29;99867.88;;;9.52;100.00
64292;BME280;50628;51.008;13.658;2023-02-17T09:08:35;99851.75;;;9.71;100.00
64292;BME280;50628;51.008;13.658;2023-02-17T09:13:38;99856.94;;;9.82;100.00
64292;BME280;50628;51.008;13.658;2023-02-17T09:18:40;99839.72;;;10.15;100.00
64292;BME280;50628;51.008;13.658;2023-02-17T09:23:43;99834.66;;;10.13;100.00
64292;BME280;50628;51.008;13.658;2023-02-17T09:28:46;99842.22;;;10.39;100.00
64292;BME280;50628;51.008;13.658;2023-02-17T09:33:48;99824.84;;;10.51;100.00
64292;BME280;50628;51.008;13.658;2023-02-17T09:38:52;99846.53;;;10.72;100.00
64292;BME280;50628;51.008;13.658;2023-02-17T09:43:54;99818.63;;;10.74;100.00
64292;BME280;50628;51.008;13.658;2023-02-17T09:49:00;99832.91;;;10.80;100.00
64292;BME280;50628;51.008;13.658;2023-02-17T09:54:09;99804.88;;;10.83;100.00
64292;BME280;50628;51.008;13.658;2023-02-17T09:59:15;99810.84;;;10.95;100.00
64292;BME280;50628;51.008;13.658;2023-02-17T10:04:23;99784.41;;;10.79;100.00
64292;BME280;50628;51.008;13.658;2023-02-17T10:09:32;99785.25;;;10.68;100.00
64292;BME280;50628;51.008;13.658;2023-02-17T10:14:39;99769.31;;;10.61;100.00
64292;BME280;50628;51.008;13.658;2023-02-17T10:19:49;99792.69;;;10.73;100.00
64292;BME280;50628;51.008;13.658;2023-02-17T10:24:53;99768.56;;;10.71;100.00
64292;BME280;50628;51.008;13.658;2023-02-17T10:30:06;99757.31;;;10.70;100.00
64292;BME280;50628;51.008;13.658;2023-02-17T10:35:15;99746.25;;;10.89;100.00
64292;BME280;50628;51.008;13.658;2023-02-17T10:40:21;99725.16;;;10.92;100.00
64292;BME280;50628;51.008;13.658;2023-02-17T10:45:28;99710.94;;;10.96;100.00
64292;BME280;50628;51.008;13.658;2023-02-17T10:50:31;99699.13;;;11.13;100.00
64292;BME280;50628;51.008;13.658;2023-02-17T10:55:38;99695.44;;;11.16;100.00
64292;BME280;50628;51.008;13.658;2023-02-17T11:00:42;99696.50;;;11.34;100.00
64292;BME280;50628;51.008;13.658;2023-02-17T11:05:52;99671.97;;;11.37;100.00
64292;BME280;50628;51.008;13.658;2023-02-17T11:11:01;99666.06;;;11.35;100.00
64292;BME280;50628;51.008;13.658;2023-02-17T11:16:04;99658.34;;;11.33;100.00
64292;BME280;50628;51.008;13.658;2023-02-17T11:21:09;99671.13;;;11.36;100.00
64292;BME280;50628;51.008;13.658;2023-02-17T11:26:20;99659.88;;;11.36;100.00
64292;BME280;50628;51.008;13.658;2023-02-17T11:31:25;99633.66;;;11.27;100.00
64292;BME280;50628;51.008;13.658;2023-02-17T11:36:29;99625.03;;;11.27;100.00
64292;BME280;50628;51.008;13.658;2023-02-17T11:41:39;99610.31;;;11.26;100.00
64292;BME280;50628;51.008;13.658;2023-02-17T11:46:45;99641.56;;;11.47;100.00
64292;BME280;50628;51.008;13.658;2023-02-17T11:51:58;99608.88;;;11.43;100.00
64292;BME280;50628;51.008;13.658;2023-02-17T11:57:20;99597.25;;;11.47;100.00
64292;BME280;50628;51.008;13.658;2023-02-17T12:02:38;99600.94;;;11.44;100.00
64292;BME280;50628;51.008;13.658;2023-02-17T12:08:10;99579.28;;;11.54;100.00
64292;BME280;50628;51.008;13.658;2023-02-17T12:13:27;99584.50;;;11.63;100.00
64292;BME280;50628;51.008;13.658;2023-02-17T12:18:52;99552.97;;;11.66;100.00
64292;BME280;50628;51.008;13.658;2023-02-17T12:24:14;99563.38;;;11.66;100.00
64292;BME280;50628;51.008;13.658;2023-02-17T12:29:28;99559.00;;;11.77;100.00
64292;BME280;50628;51.008;13.658;2023-02-17T12:34:35;99547.06;;;11.84;100.00
64292;BME280;50628;51.008;13.658;2023-02-17T12:39:41;99534.22;;;11.92;100.00
64292;BME280;50628;51.008;13.658;2023-02-17T12:44:49;99522.00;;;12.02;100.00
64292;BME280;50628;51.008;13.658;2023-02-17T12:49:54;99512.22;;;12.14;100.00
64292;BME280;50628;51.008;13.658;2023-02-17T12:55:03;99522.53;;;12.35;100.00
64292;BME280;50628;51.008;13.658;2023-02-17T13:00:19;99501.63;;;12.45;100.00
64292;BME280;50628;51.008;13.658;2023-02-17T13:05:25;99487.72;;;12.44;100.00
64292;BME280;50628;51.008;13.658;2023-02-17T13:10:33;99494.84;;;12.52;100.00
64292;BME280;50628;51.008;13.658;2023-02-17T13:15:41;99485.78;;;12.56;100.00
64292;BME280;50628;51.008;13.658;2023-02-17T13:20:55;99478.34;;;12.61;100.00
64292;BME280;50628;51.008;13.658;2023-02-17T13:26:13;99445.00;;;12.45;100.00
64292;BME280;50628;51.008;13.658;2023-02-17T13:31:20;99459.31;;;12.41;100.00
64292;BME280;50628;51.008;13.658;2023-02-17T13:36:34;99429.84;;;12.59;100.00
64292;BME280;50628;51.008;13.658;2023-02-17T13:41:44;99447.97;;;12.60;100.00
64292;BME280;50628;51.008;13.658;2023-02-17T13:46:48;99441.38;;;12.56;100.00
64292;BME280;50628;51.008;13.658;2023-02-17T13:51:51;99440.38;;;12.67;100.00
64292;BME280;50628;51.008;13.658;2023-02-17T13:56:53;99418.31;;;12.79;100.00
64292;BME280;50628;51.008;13.658;2023-02-17T14:01:57;99448.97;;;12.77;100.00
64292;BME280;50628;51.008;13.658;2023-02-17T14:07:02;99401.84;;;12.78;100.00
64292;BME280;50628;51.008;13.658;2023-02-17T14:12:08;99417.59;;;12.87;100.00
64292;BME280;50628;51.008;13.658;2023-02-17T14:17:29;99421.75;;;12.80;100.00
64292;BME280;50628;51.008;13.658;2023-02-17T14:22:33;99387.00;;;12.79;100.00
64292;BME280;50628;51.008;13.658;2023-02-17T14:27:41;99424.09;;;12.83;100.00
64292;BME280;50628;51.008;13.658;2023-02-17T14:32:44;99400.25;;;12.68;100.00
64292;BME280;50628;51.008;13.658;2023-02-17T14:37:46;99405.03;;;12.72;100.00
64292;BME280;50628;51.008;13.658;2023-02-17T14:42:49;99396.19;;;12.83;100.00
64292;BME280;50628;51.008;13.658;2023-02-17T14:47:52;99366.06;;;12.61;100.00
64292;BME280;50628;51.008;13.658;2023-02-17T14:52:56;99389.09;;;12.75;100.00
64292;BME280;50628;51.008;13.658;2023-02-17T14:57:58;99394.88;;;12.69;100.00
64292;BME280;50628;51.008;13.658;2023-02-17T15:03:01;99373.56;;;12.74;100.00
64292;BME280;50628;51.008;13.658;2023-02-17T15:08:03;99382.16;;;13.02;100.00
64292;BME280;50628;51.008;13.658;2023-02-17T15:13:05;99404.78;;;12.93;100.00
64292;BME280;50628;51.008;13.658;2023-02-17T15:18:09;99379.41;;;12.86;100.00
64292;BME280;50628;51.008;13.658;2023-02-17T15:23:12;99379.75;;;12.73;100.00
64292;BME280;50628;51.008;13.658;2023-02-17T15:28:17;99403.69;;;12.68;100.00
64292;BME280;50628;51.008;13.658;2023-02-17T15:33:22;99427.75;;;12.62;100.00
64292;BME280;50628;51.008;13.658;2023-02-17T15:38:24;99441.78;;;12.61;100.00
64292;BME280;50628;51.008;13.658;2023-02-17T15:43:32;99420.81;;;12.53;100.00
64292;BME280;50628;51.008;13.658;2023-02-17T15:48:36;99435.38;;;12.46;100.00
64292;BME280;50628;51.008;13.658;2023-02-17T15:53:38;99447.75;;;12.44;100.00
64292;BME280;50628;51.008;13.658;2023-02-17T15:58:40;99422.38;;;12.36;100.00
64292;BME280;50628;51.008;13.658;2023-02-17T16:03:44;99447.78;;;12.34;100.00
64292;BME280;50628;51.008;13.658;2023-02-17T16:08:46;99451.66;;;12.30;100.00
64292;BME280;50628;51.008;13.658;2023-02-17T16:13:48;99444.34;;;12.33;100.00
64292;BME280;50628;51.008;13.658;2023-02-17T16:18:51;99468.25;;;12.29;100.00
64292;BME280;50628;51.008;13.658;2023-02-17T16:23:53;99432.03;;;12.26;100.00
64292;BME280;50628;51.008;13.658;2023-02-17T16:28:59;99431.50;;;12.22;100.00
64292;BME280;50628;51.008;13.658;2023-02-17T16:34:03;99450.56;;;12.32;100.00
64292;BME280;50628;51.008;13.658;2023-02-17T16:39:10;99450.81;;;12.29;100.00
64292;BME280;50628;51.008;13.658;2023-02-17T16:44:14;99457.41;;;12.33;100.00
64292;BME280;50628;51.008;13.658;2023-02-17T16:49:21;99444.50;;;12.32;100.00
64292;BME280;50628;51.008;13.658;2023-02-17T16:54:26;99438.63;;;12.30;100.00
64292;BME280;50628;51.008;13.658;2023-02-17T16:59:28;99408.97;;;12.21;100.00
64292;BME280;50628;51.008;13.658;2023-02-17T17:04:31;99431.19;;;12.25;100.00
64292;BME280;50628;51.008;13.658;2023-02-17T17:09:33;99399.19;;;12.23;100.00
64292;BME280;50628;51.008;13.658;2023-02-17T17:14:35;99396.16;;;12.28;100.00
64292;BME280;50628;51.008;13.658;2023-02-17T17:19:38;99411.94;;;12.36;100.00
64292;BME280;50628;51.008;13.658;2023-02-17T17:24:40;99444.63;;;12.40;100.00
64292;BME280;50628;51.008;13.658;2023-02-17T17:29:42;99416.81;;;12.49;100.00
64292;BME280;50628;51.008;13.658;2023-02-17T17:34:45;99433.94;;;12.61;100.00
64292;BME280;50628;51.008;13.658;2023-02-17T17:39:47;99437.00;;;12.56;100.00
64292;BME280;50628;51.008;13.658;2023-02-17T17:44:49;99443.81;;;12.67;100.00
64292;BME280;50628;51.008;13.658;2023-02-17T17:49:52;99432.81;;;12.73;100.00
64292;BME280;50628;51.008;13.658;2023-02-17T17:54:54;99484.94;;;12.93;100.00
64292;BME280;50628;51.008;13.658;2023-02-17T17:59:56;99473.22;;;12.97;100.00
64292;BME280;50628;51.008;13.658;2023-02-17T18:04:59;99498.97;;;12.92;100.00
64292;BME280;50628;51.008;13.658;2023-02-17T18:10:02;99501.09;;;12.78;100.00
64292;BME280;50628;51.008;13.658;2023-02-17T18:15:05;99480.09;;;12.70;100.00
64292;BME280;50628;51.008;13.658;2023-02-17T18:20:10;99506.44;;;12.77;100.00
64292;BME280;50628;51.008;13.658;2023-02-17T18:25:12;99533.28;;;12.69;100.00
64292;BME280;50628;51.008;13.658;2023-02-17T18:30:16;99541.44;;;12.47;100.00
64292;BME280;50628;51.008;13.658;2023-02-17T18:35:20;99570.59;;;12.03;100.00
64292;BME280;50628;51.008;13.658;2023-02-17T18:40:22;99577.09;;;11.49;100.00
64292;BME280;50628;51.008;13.658;2023-02-17T18:45:25;99604.34;;;11.04;100.00
64292;BME280;50628;51.008;13.658;2023-02-17T18:50:28;99623.88;;;10.89;100.00
64292;BME280;50628;51.008;13.658;2023-02-17T18:55:35;99610.28;;;10.65;100.00
64292;BME280;50628;51.008;13.658;2023-02-17T19:00:37;99623.38;;;10.53;100.00
64292;BME280;50628;51.008;13.658;2023-02-17T19:05:40;99662.09;;;10.47;100.00
64292;BME280;50628;51.008;13.658;2023-02-17T19:10:42;99663.16;;;10.44;100.00
64292;BME280;50628;51.008;13.658;2023-02-17T19:15:44;99666.47;;;10.46;100.00
64292;BME280;50628;51.008;13.658;2023-02-17T19:20:47;99687.47;;;10.54;100.00
64292;BME280;50628;51.008;13.658;2023-02-17T19:25:49;99652.69;;;10.55;100.00
64292;BME280;50628;51.008;13.658;2023-02-17T19:30:54;99680.50;;;10.55;100.00
64292;BME280;50628;51.008;13.658;2023-02-17T19:35:58;99662.47;;;10.63;100.00
64292;BME280;50628;51.008;13.658;2023-02-17T19:41:01;99660.56;;;10.65;100.00
64292;BME280;50628;51.008;13.658;2023-02-17T19:46:04;99664.44;;;10.71;100.00
64292;BME280;50628;51.008;13.658;2023-02-17T19:51:08;99658.84;;;10.75;100.00
64292;BME280;50628;51.008;13.658;2023-02-17T19:56:13;99672.25;;;10.71;100.00
64292;BME280;50628;51.008;13.658;2023-02-17T20:01:17;99646.97;;;10.82;100.00
64292;BME280;50628;51.008;13.658;2023-02-17T20:06:23;99667.31;;;10.89;100.00
64292;BME280;50628;51.008;13.658;2023-02-17T20:11:25;99666.63;;;10.87;100.00
64292;BME280;50628;51.008;13.658;2023-02-17T20:16:28;99660.41;;;10.99;100.00
64292;BME280;50628;51.008;13.658;2023-02-17T20:21:33;99677.28;;;11.04;100.00
64292;BME280;50628;51.008;13.658;2023-02-17T20:26:39;99666.34;;;11.11;100.00
64292;BME280;50628;51.008;13.658;2023-02-17T20:31:41;99659.34;;;11.11;100.00
64292;BME280;50628;51.008;13.658;2023-02-17T20:36:44;99666.34;;;11.11;100.00
64292;BME280;50628;51.008;13.658;2023-02-17T20:41:46;99667.69;;;11.05;100.00
64292;BME280;50628;51.008;13.658;2023-02-17T20:46:48;99656.28;;;11.06;100.00
64292;BME280;50628;51.008;13.658;2023-02-17T20:51:52;99676.03;;;10.99;100.00
64292;BME280;50628;51.008;13.658;2023-02-17T20:56:54;99674.50;;;10.96;100.00
64292;BME280;50628;51.008;13.658;2023-02-17T21:01:58;99691.84;;;10.86;100.00
64292;BME280;50628;51.008;13.658;2023-02-17T21:07:01;99692.31;;;10.80;100.00
64292;BME280;50628;51.008;13.658;2023-02-17T21:12:03;99684.31;;;10.72;100.00
64292;BME280;50628;51.008;13.658;2023-02-17T21:17:06;99693.31;;;10.68;100.00
64292;BME280;50628;51.008;13.658;2023-02-17T21:22:09;99695.47;;;10.63;100.00
64292;BME280;50628;51.008;13.658;2023-02-17T21:27:11;99709.63;;;10.49;100.00
64292;BME280;50628;51.008;13.658;2023-02-17T21:32:13;99713.78;;;10.40;100.00
64292;BME280;50628;51.008;13.658;2023-02-17T21:37:16;99714.50;;;10.42;100.00
64292;BME280;50628;51.008;13.658;2023-02-17T21:42:18;99716.84;;;10.45;100.00
64292;BME280;50628;51.008;13.658;2023-02-17T21:47:40;99741.31;;;10.43;100.00
64292;BME280;50628;51.008;13.658;2023-02-17T21:52:43;99756.94;;;10.43;100.00
64292;BME280;50628;51.008;13.658;2023-02-17T21:57:45;99782.50;;;10.37;100.00
64292;BME280;50628;51.008;13.658;2023-02-17T22:02:47;99787.84;;;10.36;100.00
64292;BME280;50628;51.008;13.658;2023-02-17T22:07:50;99788.78;;;10.24;100.00
64292;BME280;50628;51.008;13.658;2023-02-17T22:12:52;99802.94;;;10.19;100.00
64292;BME280;50628;51.008;13.658;2023-02-17T22:17:54;99824.81;;;9.72;100.00
64292;BME280;50628;51.008;13.658;2023-02-17T22:22:57;99849.31;;;8.86;100.00
64292;BME280;50628;51.008;13.658;2023-02-17T22:27:59;99873.75;;;8.71;100.00
64292;BME280;50628;51.008;13.658;2023-02-17T22:33:01;99866.88;;;8.45;100.00
64292;BME280;50628;51.008;13.658;2023-02-17T22:38:06;99877.84;;;8.36;100.00
64292;BME280;50628;51.008;13.658;2023-02-17T22:43:08;99877.16;;;8.34;100.00
64292;BME280;50628;51.008;13.658;2023-02-17T22:48:09;99878.78;;;8.48;100.00
64292;BME280;50628;51.008;13.658;2023-02-17T22:53:13;99874.03;;;8.55;100.00
64292;BME280;50628;51.008;13.658;2023-02-17T22:58:14;99880.84;;;8.56;100.00
64292;BME280;50628;51.008;13.658;2023-02-17T23:03:17;99893.00;;;8.55;100.00
64292;BME280;50628;51.008;13.658;2023-02-17T23:08:20;99902.44;;;8.56;100.00
64292;BME280;50628;51.008;13.658;2023-02-17T23:13:22;99890.69;;;8.63;100.00
64292;BME280;50628;51.008;13.658;2023-02-17T23:18:24;99899.66;;;8.59;100.00
64292;BME280;50628;51.008;13.658;2023-02-17T23:23:28;99914.16;;;8.62;100.00
64292;BME280;50628;51.008;13.658;2023-02-17T23:28:30;99905.66;;;8.60;100.00
64292;BME280;50628;51.008;13.658;2023-02-17T23:33:31;99914.56;;;8.69;100.00
64292;BME280;50628;51.008;13.658;2023-02-17T23:38:35;99908.31;;;8.71;100.00
64292;BME280;50628;51.008;13.658;2023-02-17T23:43:37;99927.53;;;8.69;100.00
64292;BME280;50628;51.008;13.658;2023-02-17T23:48:38;99916.72;;;8.75;100.00
64292;BME280;50628;51.008;13.658;2023-02-17T23:53:42;99913.78;;;8.79;100.00
64292;BME280;50628;51.008;13.658;2023-02-17T23:58:44;99924.84;;;8.94;100.00
